Time;durP1;ratioP1;P1;durP2;ratioP2;P2;SDS_P1;SDS_P2;PMS_P1;PMS_P2;Temp;Humidity;BMP_temperature;BMP_pressure;BME280_temperature;BME280_humidity;BME280_pressure;Samples;Min_cycle;Max_cycle;Signal;HPM_P1;HPM_P2
2021/09/22 00:01:37;;;;;;;12.50;8.03;;;;;;;;;;5071500;28;20401;-52
2021/09/22 00:04:03;;;;;;;16.60;8.53;;;;;;;;;;5071580;28;20454;-51
2021/09/22 00:06:29;;;;;;;11.27;8.10;;;;;;;;;;5071279;28;20416;-50
2021/09/22 00:08:55;;;;;;;17.13;8.43;;;;;;;;;;5073724;28;20939;-51
2021/09/22 00:11:21;;;;;;;17.73;8.77;;;;;;;;;;5075403;28;20392;-52
2021/09/22 00:13:47;;;;;;;19.80;9.17;;;;;;;;;;5075412;28;20392;-51
2021/09/22 00:16:13;;;;;;;14.17;10.00;;;;;;;;;;5075334;28;20848;-51
2021/09/22 00:18:39;;;;;;;20.57;9.37;;;;;;;;;;5075436;28;20444;-50
2021/09/22 00:21:05;;;;;;;14.50;7.60;;;;;;;;;;5075648;28;20818;-50
2021/09/22 00:23:31;;;;;;;16.10;8.00;;;;;;;;;;5075167;28;20426;-48
2021/09/22 00:25:58;;;;;;;13.60;7.93;;;;;;;;;;5075105;28;20991;-46
2021/09/22 00:28:24;;;;;;;14.03;7.67;;;;;;;;;;5075094;28;20440;-51
2021/09/22 00:30:50;;;;;;;13.17;8.07;;;;;;;;;;5074946;28;20492;-50
2021/09/22 00:33:16;;;;;;;13.77;7.60;;;;;;;;;;5075066;28;20425;-49
2021/09/22 00:35:42;;;;;;;8.40;7.57;;;;;;;;;;5074919;28;20764;-49
2021/09/22 00:38:08;;;;;;;10.23;7.43;;;;;;;;;;5074712;28;20404;-49
2021/09/22 00:40:34;;;;;;;9.70;7.60;;;;;;;;;;5074841;28;20439;-48
2021/09/22 00:43:00;;;;;;;7.93;7.10;;;;;;;;;;5074898;28;20895;-50
2021/09/22 00:45:26;;;;;;;12.23;8.07;;;;;;;;;;5074868;28;20895;-50
2021/09/22 00:47:52;;;;;;;8.63;7.77;;;;;;;;;;5074593;28;20442;-50
2021/09/22 00:50:18;;;;;;;13.40;7.30;;;;;;;;;;5074607;28;20448;-50
2021/09/22 00:52:44;;;;;;;10.63;7.37;;;;;;;;;;5074615;28;20397;-50
2021/09/22 00:55:11;;;;;;;8.50;7.33;;;;;;;;;;5074643;28;20779;-48
2021/09/22 00:57:42;;;;;;;9.57;7.20;;;;;;;;;;5074386;28;20420;-50
2021/09/22 01:00:08;;;;;;;10.43;8.00;;;;;;;;;;5074594;28;20397;-50
2021/09/22 01:02:34;;;;;;;8.23;6.50;;;;;;;;;;5073700;28;20405;-50
2021/09/22 01:05:00;;;;;;;17.50;7.60;;;;;;;;;;5073951;28;20405;-49
2021/09/22 01:07:26;;;;;;;9.27;7.93;;;;;;;;;;5074033;28;20420;-49
2021/09/22 01:09:52;;;;;;;10.97;7.43;;;;;;;;;;5074196;28;20467;-48
2021/09/22 01:12:18;;;;;;;16.50;7.70;;;;;;;;;;5074326;28;20422;-51
2021/09/22 01:14:44;;;;;;;8.20;7.37;;;;;;;;;;5074372;28;20489;-51
2021/09/22 01:17:10;;;;;;;10.03;7.53;;;;;;;;;;5073911;28;20428;-51
2021/09/22 01:19:36;;;;;;;14.53;7.73;;;;;;;;;;5073503;28;20484;-51
2021/09/22 01:22:02;;;;;;;9.30;7.63;;;;;;;;;;5074077;28;20393;-51
2021/09/22 01:24:28;;;;;;;8.97;7.53;;;;;;;;;;5074091;28;20884;-51
2021/09/22 01:26:54;;;;;;;10.70;7.60;;;;;;;;;;5074145;28;20507;-52
2021/09/22 01:29:20;;;;;;;8.00;7.13;;;;;;;;;;5074086;28;20975;-51
2021/09/22 01:31:46;;;;;;;9.30;7.83;;;;;;;;;;5073923;28;20397;-50
2021/09/22 01:34:13;;;;;;;11.73;7.40;;;;;;;;;;5073917;28;20400;-50
2021/09/22 01:36:39;;;;;;;13.50;7.97;;;;;;;;;;5073569;28;20956;-51
2021/09/22 01:39:06;;;;;;;10.97;8.27;;;;;;;;;;5073911;28;20396;-51
2021/09/22 01:41:32;;;;;;;9.37;7.93;;;;;;;;;;5073730;28;20392;-51
2021/09/22 01:43:58;;;;;;;12.27;7.30;;;;;;;;;;5073765;28;20496;-51
2021/09/22 01:46:24;;;;;;;12.00;8.70;;;;;;;;;;5073555;28;20452;-51
2021/09/22 01:48:51;;;;;;;9.37;7.97;;;;;;;;;;5073608;28;20433;-51
2021/09/22 01:51:17;;;;;;;9.43;7.00;;;;;;;;;;5073868;28;20459;-50
2021/09/22 01:53:43;;;;;;;7.87;7.07;;;;;;;;;;5073796;28;20424;-48
2021/09/22 01:56:09;;;;;;;8.17;7.27;;;;;;;;;;5073285;28;20447;-49
2021/09/22 01:58:35;;;;;;;14.43;7.77;;;;;;;;;;5073460;28;20429;-50
2021/09/22 02:01:03;;;;;;;14.77;7.63;;;;;;;;;;5073396;28;20432;-50
2021/09/22 02:03:29;;;;;;;11.37;7.73;;;;;;;;;;5073282;28;20461;-48
2021/09/22 02:05:55;;;;;;;11.63;7.63;;;;;;;;;;5073263;28;20528;-51
2021/09/22 02:08:21;;;;;;;12.63;8.10;;;;;;;;;;5073080;28;20483;-51
2021/09/22 02:10:48;;;;;;;15.47;9.10;;;;;;;;;;5073073;28;20459;-50
2021/09/22 02:13:14;;;;;;;12.10;8.73;;;;;;;;;;5073180;28;20409;-51
2021/09/22 02:15:40;;;;;;;11.50;8.93;;;;;;;;;;5073065;28;20489;-51
2021/09/22 02:18:06;;;;;;;24.40;7.93;;;;;;;;;;5072664;28;20922;-50
2021/09/22 02:20:32;;;;;;;13.43;9.00;;;;;;;;;;5072982;28;20408;-52
2021/09/22 02:22:58;;;;;;;13.87;9.67;;;;;;;;;;5072958;28;20400;-50
2021/09/22 02:25:24;;;;;;;15.80;11.13;;;;;;;;;;5073025;28;20404;-50
2021/09/22 02:27:49;;;;;;;17.47;10.30;;;;;;;;;;5072568;28;20756;-50
2021/09/22 02:30:17;;;;;;;18.37;10.17;;;;;;;;;;5072776;28;20455;-50
2021/09/22 02:32:44;;;;;;;23.87;11.43;;;;;;;;;;5072449;28;20400;-49
2021/09/22 02:35:10;;;;;;;31.63;11.03;;;;;;;;;;5072762;28;20436;-50
2021/09/22 02:37:36;;;;;;;15.03;9.40;;;;;;;;;;5072409;28;20459;-50
2021/09/22 02:40:04;;;;;;;11.97;8.77;;;;;;;;;;5072593;28;20412;-50
2021/09/22 02:42:30;;;;;;;14.60;8.87;;;;;;;;;;5072513;28;20400;-50
2021/09/22 02:44:56;;;;;;;12.10;9.20;;;;;;;;;;5072555;28;20411;-51
2021/09/22 02:47:23;;;;;;;12.17;8.70;;;;;;;;;;5072151;28;20427;-49
2021/09/22 02:49:49;;;;;;;12.80;8.90;;;;;;;;;;5072423;28;20874;-51
2021/09/22 02:52:15;;;;;;;17.73;9.47;;;;;;;;;;5072449;28;20401;-50
2021/09/22 02:54:41;;;;;;;11.27;9.23;;;;;;;;;;5072507;28;20396;-48
2021/09/22 02:57:07;;;;;;;15.53;9.70;;;;;;;;;;5072067;28;20787;-50
2021/09/22 02:59:33;;;;;;;12.90;9.20;;;;;;;;;;5072275;28;20400;-49
2021/09/22 03:01:59;;;;;;;16.63;10.20;;;;;;;;;;5072081;28;20907;-49
2021/09/22 03:04:25;;;;;;;13.07;9.57;;;;;;;;;;5072244;28;20439;-51
2021/09/22 03:06:51;;;;;;;13.73;8.83;;;;;;;;;;5071903;28;20428;-51
2021/09/22 03:09:17;;;;;;;20.03;9.80;;;;;;;;;;5072062;28;20466;-51
2021/09/22 03:11:43;;;;;;;12.20;9.33;;;;;;;;;;5072097;28;20411;-50
2021/09/22 03:14:09;;;;;;;11.80;9.87;;;;;;;;;;5072099;28;20404;-50
2021/09/22 03:16:35;;;;;;;16.70;9.50;;;;;;;;;;5071655;28;20427;-50
2021/09/22 03:19:01;;;;;;;11.70;8.80;;;;;;;;;;5071947;28;20426;-51
2021/09/22 03:21:28;;;;;;;12.10;9.13;;;;;;;;;;5071955;28;20462;-51
2021/09/22 03:23:54;;;;;;;13.13;9.10;;;;;;;;;;5072019;28;20407;-51
2021/09/22 03:26:20;;;;;;;14.60;9.10;;;;;;;;;;5071763;28;20478;-50
2021/09/22 03:28:46;;;;;;;15.20;9.30;;;;;;;;;;5071902;28;20999;-50
2021/09/22 03:31:12;;;;;;;11.90;8.77;;;;;;;;;;5071649;28;20544;-50
2021/09/22 03:33:38;;;;;;;11.97;8.10;;;;;;;;;;5071822;28;20814;-50
2021/09/22 03:36:05;;;;;;;17.80;9.63;;;;;;;;;;5071795;28;20416;-50
2021/09/22 03:38:31;;;;;;;12.47;9.00;;;;;;;;;;5071614;28;20454;-50
2021/09/22 03:40:57;;;;;;;14.00;9.63;;;;;;;;;;5071735;28;20409;-50
2021/09/22 03:43:23;;;;;;;22.13;12.23;;;;;;;;;;5071243;28;20404;-48
2021/09/22 03:45:49;;;;;;;19.70;11.30;;;;;;;;;;5071569;28;20405;-50
2021/09/22 03:48:15;;;;;;;20.40;12.33;;;;;;;;;;5071545;28;20413;-49
2021/09/22 03:50:42;;;;;;;26.30;13.40;;;;;;;;;;5071592;28;20454;-48
2021/09/22 03:53:08;;;;;;;24.70;11.23;;;;;;;;;;5071638;28;20959;-51
2021/09/22 03:55:34;;;;;;;20.83;12.37;;;;;;;;;;5071613;28;20393;-50
2021/09/22 03:58:00;;;;;;;19.23;11.30;;;;;;;;;;5071392;28;20442;-50
2021/09/22 04:00:26;;;;;;;27.87;12.97;;;;;;;;;;5071492;28;20407;-50
2021/09/22 04:02:51;;;;;;;15.30;10.40;;;;;;;;;;5071434;28;20395;-50
2021/09/22 04:05:17;;;;;;;15.57;10.40;;;;;;;;;;5071602;28;20395;-50
2021/09/22 04:07:43;;;;;;;16.40;9.47;;;;;;;;;;5071233;28;20436;-50
2021/09/22 04:10:10;;;;;;;12.37;9.30;;;;;;;;;;5071415;28;20513;-48
2021/09/22 04:12:36;;;;;;;16.00;9.77;;;;;;;;;;5071372;28;20491;-50
2021/09/22 04:15:02;;;;;;;16.40;10.70;;;;;;;;;;5071384;28;20439;-49
2021/09/22 04:17:29;;;;;;;16.63;11.27;;;;;;;;;;5071242;28;20436;-50
2021/09/22 04:19:54;;;;;;;21.33;10.03;;;;;;;;;;5071402;28;20913;-50
2021/09/22 04:22:21;;;;;;;18.90;11.27;;;;;;;;;;5071618;28;20394;-51
2021/09/22 04:24:46;;;;;;;27.27;12.57;;;;;;;;;;5071444;28;20433;-49
2021/09/22 04:27:12;;;;;;;17.20;10.30;;;;;;;;;;5071105;28;20422;-50
2021/09/22 04:29:38;;;;;;;18.93;11.37;;;;;;;;;;5071158;28;20458;-51
2021/09/22 04:32:05;;;;;;;20.03;10.97;;;;;;;;;;5071245;28;20489;-51
2021/09/22 04:34:31;;;;;;;18.60;11.50;;;;;;;;;;5071443;28;20415;-50
2021/09/22 04:36:57;;;;;;;17.63;10.87;;;;;;;;;;5070953;28;20432;-51
2021/09/22 04:39:23;;;;;;;16.63;10.47;;;;;;;;;;5071232;28;20411;-51
2021/09/22 04:41:49;;;;;;;22.63;10.60;;;;;;;;;;5071138;28;20440;-50
2021/09/22 04:44:14;;;;;;;13.90;9.53;;;;;;;;;;5071108;28;20957;-50
2021/09/22 04:46:40;;;;;;;14.47;9.63;;;;;;;;;;5070884;28;20431;-50
2021/09/22 04:49:06;;;;;;;18.10;10.27;;;;;;;;;;5071167;28;20396;-50
2021/09/22 04:51:32;;;;;;;20.30;9.70;;;;;;;;;;5071075;28;20438;-50
2021/09/22 04:53:58;;;;;;;14.83;9.87;;;;;;;;;;5071086;28;20409;-48
2021/09/22 04:56:24;;;;;;;17.00;9.33;;;;;;;;;;5073719;28;20431;-47
2021/09/22 04:58:50;;;;;;;20.40;10.90;;;;;;;;;;5074650;28;20634;-51
2021/09/22 05:01:16;;;;;;;14.03;10.20;;;;;;;;;;5074518;28;20961;-50
2021/09/22 05:03:42;;;;;;;18.70;11.17;;;;;;;;;;5074540;28;21013;-51
2021/09/22 05:06:08;;;;;;;20.10;11.10;;;;;;;;;;5074446;28;20510;-50
2021/09/22 05:08:34;;;;;;;17.67;12.10;;;;;;;;;;5074290;28;20435;-50
2021/09/22 05:11:00;;;;;;;17.30;11.37;;;;;;;;;;5074201;28;20487;-50
2021/09/22 05:13:26;;;;;;;21.17;11.87;;;;;;;;;;5074316;28;20443;-50
2021/09/22 05:15:52;;;;;;;17.50;11.90;;;;;;;;;;5074380;28;20408;-49
2021/09/22 05:18:18;;;;;;;17.27;12.93;;;;;;;;;;5074023;28;20463;-50
2021/09/22 05:20:44;;;;;;;16.67;12.73;;;;;;;;;;5074933;28;20786;-47
2021/09/22 05:23:10;;;;;;;23.30;14.07;;;;;;;;;;5074130;28;20785;-48
2021/09/22 05:25:36;;;;;;;18.83;13.20;;;;;;;;;;5074072;28;20541;-46
2021/09/22 05:28:03;;;;;;;23.33;15.70;;;;;;;;;;5073796;28;20912;-48
2021/09/22 05:30:29;;;;;;;24.53;16.00;;;;;;;;;;5073902;28;20505;-48
2021/09/22 05:32:55;;;;;;;30.17;17.03;;;;;;;;;;5073924;28;20393;-46
2021/09/22 05:35:21;;;;;;;34.47;19.73;;;;;;;;;;5073987;28;20392;-49
2021/09/22 05:37:47;;;;;;;26.83;16.60;;;;;;;;;;5073618;28;20416;-45
2021/09/22 05:40:13;;;;;;;27.27;16.13;;;;;;;;;;5073823;28;20404;-44
2021/09/22 05:42:39;;;;;;;26.97;18.33;;;;;;;;;;5073683;28;20464;-45
2021/09/22 05:45:06;;;;;;;32.50;19.50;;;;;;;;;;5073702;28;20884;-44
2021/09/22 05:47:32;;;;;;;41.37;18.30;;;;;;;;;;5073445;28;21001;-44
2021/09/22 05:49:57;;;;;;;35.43;19.13;;;;;;;;;;5073610;28;20456;-44
2021/09/22 05:52:23;;;;;;;35.47;17.40;;;;;;;;;;5073563;28;20453;-44
2021/09/22 05:54:50;;;;;;;33.43;17.03;;;;;;;;;;5073487;28;20407;-44
2021/09/22 05:57:16;;;;;;;27.33;16.70;;;;;;;;;;5073242;28;20468;-44
2021/09/22 05:59:42;;;;;;;32.37;16.03;;;;;;;;;;5073448;28;20923;-45
2021/09/22 06:02:08;;;;;;;20.10;13.30;;;;;;;;;;5073332;28;20412;-45
2021/09/22 06:04:34;;;;;;;23.03;13.63;;;;;;;;;;5073472;28;20488;-44
2021/09/22 06:07:00;;;;;;;25.03;12.80;;;;;;;;;;5072636;28;20412;-44
2021/09/22 06:09:26;;;;;;;21.93;13.43;;;;;;;;;;5073109;28;20412;-44
2021/09/22 06:11:52;;;;;;;18.57;12.80;;;;;;;;;;5073216;28;20495;-45
2021/09/22 06:14:18;;;;;;;20.07;13.57;;;;;;;;;;5073256;28;20399;-45
2021/09/22 06:16:44;;;;;;;21.80;13.83;;;;;;;;;;5072951;28;20773;-47
2021/09/22 06:19:10;;;;;;;29.67;14.33;;;;;;;;;;5073112;28;20393;-45
2021/09/22 06:21:37;;;;;;;24.97;14.13;;;;;;;;;;5072997;28;20447;-45
2021/09/22 06:24:04;;;;;;;21.80;14.47;;;;;;;;;;5072906;28;20412;-45
2021/09/22 06:26:30;;;;;;;26.07;16.33;;;;;;;;;;5072917;28;20497;-44
2021/09/22 06:28:56;;;;;;;24.30;14.00;;;;;;;;;;5072640;28;20892;-44
2021/09/22 06:31:26;;;;;;;26.10;13.33;;;;;;;;;;5072731;28;20535;-45
2021/09/22 06:33:52;;;;;;;30.17;15.27;;;;;;;;;;5073174;28;20466;-45
2021/09/22 06:36:18;;;;;;;25.63;13.87;;;;;;;;;;5072755;28;20941;-45
2021/09/22 06:38:45;;;;;;;22.27;13.33;;;;;;;;;;5072458;28;20392;-44
2021/09/22 06:41:11;;;;;;;21.53;12.23;;;;;;;;;;5072799;28;20401;-44
2021/09/22 06:43:37;;;;;;;21.13;13.80;;;;;;;;;;5072647;28;20485;-44
2021/09/22 06:46:03;;;;;;;23.87;12.90;;;;;;;;;;5072236;28;20429;-45
2021/09/22 06:48:29;;;;;;;20.43;13.37;;;;;;;;;;5072268;28;20406;-45
2021/09/22 06:50:55;;;;;;;21.93;14.37;;;;;;;;;;5071811;28;20452;-45
2021/09/22 06:53:21;;;;;;;30.30;15.13;;;;;;;;;;5071815;28;20761;-45
2021/09/22 06:55:47;;;;;;;23.90;14.77;;;;;;;;;;5068365;28;20419;-46
2021/09/22 06:58:13;;;;;;;20.57;14.23;;;;;;;;;;5062937;28;20875;-45
2021/09/22 07:00:39;;;;;;;20.17;15.17;;;;;;;;;;5071890;28;20541;-45
2021/09/22 07:03:11;;;;;;;20.70;14.10;;;;;;;;;;5072168;28;20900;-46
2021/09/22 07:05:37;;;;;;;19.27;14.37;;;;;;;;;;5071241;28;20474;-49
2021/09/22 07:08:03;;;;;;;20.97;14.93;;;;;;;;;;5071557;28;20994;-48
2021/09/22 07:10:31;;;;;;;18.83;12.87;;;;;;;;;;5071474;28;20825;-47
2021/09/22 07:12:57;;;;;;;19.00;12.10;;;;;;;;;;5070232;28;20394;-46
2021/09/22 07:15:23;;;;;;;17.40;12.03;;;;;;;;;;5071897;28;20380;-48
2021/09/22 07:17:49;;;;;;;24.27;12.40;;;;;;;;;;5070968;28;20831;-49
2021/09/22 07:20:16;;;;;;;17.37;11.30;;;;;;;;;;5072007;28;20776;-45
2021/09/22 07:22:42;;;;;;;18.57;11.60;;;;;;;;;;5071923;28;20403;-48
2021/09/22 07:25:09;;;;;;;18.30;10.90;;;;;;;;;;5071960;28;20928;-45
2021/09/22 07:27:35;;;;;;;15.83;11.27;;;;;;;;;;5071943;28;20470;-45
2021/09/22 07:30:01;;;;;;;17.40;12.33;;;;;;;;;;5071850;28;20437;-46
2021/09/22 07:32:27;;;;;;;17.50;11.93;;;;;;;;;;5071968;28;20962;-46
2021/09/22 07:34:53;;;;;;;17.77;12.00;;;;;;;;;;5071795;28;20398;-47
2021/09/22 07:37:19;;;;;;;17.43;12.70;;;;;;;;;;5071660;28;20441;-48
2021/09/22 07:39:46;;;;;;;16.57;12.43;;;;;;;;;;5071868;28;20909;-45
2021/09/22 07:42:12;;;;;;;20.63;12.30;;;;;;;;;;5071765;28;20455;-45
2021/09/22 07:44:39;;;;;;;15.93;11.73;;;;;;;;;;5071888;28;20920;-45
2021/09/22 07:47:07;;;;;;;16.50;12.07;;;;;;;;;;5071773;28;20807;-49
2021/09/22 07:49:33;;;;;;;19.93;13.07;;;;;;;;;;5071584;28;20453;-45
2021/09/22 07:51:59;;;;;;;17.23;12.07;;;;;;;;;;5071602;28;20535;-46
2021/09/22 07:54:25;;;;;;;17.50;12.13;;;;;;;;;;5071725;28;20403;-46
2021/09/22 07:56:51;;;;;;;19.20;11.27;;;;;;;;;;5071437;28;20495;-45
2021/09/22 07:59:17;;;;;;;18.50;12.87;;;;;;;;;;5071633;28;20898;-45
2021/09/22 08:01:43;;;;;;;16.27;12.63;;;;;;;;;;5071680;28;20826;-46
2021/09/22 08:04:09;;;;;;;21.60;12.17;;;;;;;;;;5071657;28;20411;-46
2021/09/22 08:06:35;;;;;;;17.57;12.47;;;;;;;;;;5071619;28;20412;-47
2021/09/22 08:09:01;;;;;;;15.33;13.03;;;;;;;;;;5071374;28;20411;-49
2021/09/22 08:11:27;;;;;;;16.07;11.13;;;;;;;;;;5071492;28;20459;-46
2021/09/22 08:13:53;;;;;;;16.30;12.80;;;;;;;;;;5071588;28;20420;-50
2021/09/22 08:16:19;;;;;;;17.83;12.93;;;;;;;;;;5071504;28;20548;-48
2021/09/22 08:18:46;;;;;;;18.27;12.93;;;;;;;;;;5071144;28;20540;-50
2021/09/22 08:21:13;;;;;;;18.57;12.57;;;;;;;;;;5071544;28;20396;-47
2021/09/22 08:23:39;;;;;;;17.37;12.50;;;;;;;;;;5071465;28;20404;-47
2021/09/22 08:26:05;;;;;;;16.70;12.60;;;;;;;;;;5071286;28;20429;-46
2021/09/22 08:28:31;;;;;;;20.90;13.73;;;;;;;;;;5071226;28;20411;-46
2021/09/22 08:30:57;;;;;;;22.43;13.53;;;;;;;;;;5075057;28;20831;-46
2021/09/22 08:33:23;;;;;;;16.00;13.53;;;;;;;;;;5075052;28;20402;-46
2021/09/22 08:35:49;;;;;;;16.30;13.57;;;;;;;;;;5075038;28;20396;-47
2021/09/22 08:38:15;;;;;;;17.90;13.47;;;;;;;;;;5074956;28;20442;-47
2021/09/22 08:40:41;;;;;;;16.47;12.77;;;;;;;;;;5074977;28;20400;-46
2021/09/22 08:43:07;;;;;;;18.77;13.20;;;;;;;;;;5074837;28;20457;-49
2021/09/22 08:45:34;;;;;;;17.40;13.30;;;;;;;;;;5074942;28;20770;-48
2021/09/22 08:48:00;;;;;;;17.97;14.37;;;;;;;;;;5074653;28;20434;-48
2021/09/22 08:50:26;;;;;;;21.40;14.83;;;;;;;;;;5075042;28;20481;-46
2021/09/22 08:52:52;;;;;;;18.30;13.73;;;;;;;;;;5074985;28;20402;-46
2021/09/22 08:55:18;;;;;;;16.33;13.30;;;;;;;;;;5074599;28;20487;-47
2021/09/22 08:57:44;;;;;;;16.60;12.03;;;;;;;;;;5074413;28;20423;-47
2021/09/22 09:00:12;;;;;;;15.70;11.50;;;;;;;;;;5074559;28;20430;-46
2021/09/22 09:02:38;;;;;;;19.97;15.13;;;;;;;;;;5074486;28;20541;-46
2021/09/22 09:05:06;;;;;;;19.10;13.53;;;;;;;;;;5074516;28;20415;-48
2021/09/22 09:07:33;;;;;;;19.23;14.00;;;;;;;;;;5074359;28;20479;-46
2021/09/22 09:10:07;;;;;;;16.30;13.50;;;;;;;;;;5074399;28;20474;-48
2021/09/22 09:12:33;;;;;;;19.10;12.93;;;;;;;;;;5074425;28;20403;-47
2021/09/22 09:15:02;;;;;;;20.30;13.00;;;;;;;;;;5074308;28;20395;-46
2021/09/22 09:17:37;;;;;;;20.83;14.53;;;;;;;;;;5073941;28;20451;-48
2021/09/22 09:20:23;;;;;;;18.57;14.87;;;;;;;;;;5074300;28;20418;-49
2021/09/22 09:22:53;;;;;;;19.37;14.00;;;;;;;;;;5074268;28;20534;-50
2021/09/22 09:25:23;;;;;;;18.23;13.87;;;;;;;;;;5074002;28;20750;-47
2021/09/22 09:27:49;;;;;;;16.27;12.73;;;;;;;;;;5073871;28;20424;-47
2021/09/22 09:30:16;;;;;;;16.60;13.00;;;;;;;;;;5074032;28;20460;-46
2021/09/22 09:32:43;;;;;;;15.17;12.90;;;;;;;;;;5073963;28;20400;-47
2021/09/22 09:35:10;;;;;;;21.40;13.47;;;;;;;;;;5074046;28;20488;-47
2021/09/22 09:37:40;;;;;;;18.60;14.07;;;;;;;;;;5073672;28;20495;-46
2021/09/22 09:40:25;;;;;;;14.97;12.80;;;;;;;;;;5073565;28;20700;-46
2021/09/22 09:42:58;;;;;;;25.07;13.90;;;;;;;;;;5073700;28;20809;-46
2021/09/22 09:45:25;;;;;;;18.73;12.40;;;;;;;;;;5073780;28;20904;-46
2021/09/22 09:47:58;;;;;;;17.77;13.60;;;;;;;;;;5073514;28;20421;-48
2021/09/22 09:50:24;;;;;;;16.83;12.77;;;;;;;;;;5073505;28;20440;-46
2021/09/22 09:52:55;;;;;;;15.77;12.90;;;;;;;;;;5073479;28;20392;-47
2021/09/22 09:55:23;;;;;;;14.90;12.67;;;;;;;;;;5073485;28;20834;-46
2021/09/22 09:57:50;;;;;;;15.77;11.23;;;;;;;;;;5073309;28;20412;-46
2021/09/22 10:00:17;;;;;;;13.97;10.53;;;;;;;;;;5073427;28;20405;-50
2021/09/22 10:02:43;;;;;;;13.27;10.23;;;;;;;;;;5073431;28;20397;-49
2021/09/22 10:05:09;;;;;;;13.27;9.60;;;;;;;;;;5073410;28;20396;-46
2021/09/22 10:07:36;;;;;;;18.17;11.97;;;;;;;;;;5073355;28;20459;-47
2021/09/22 10:10:04;;;;;;;14.40;12.30;;;;;;;;;;5073042;28;20454;-47
2021/09/22 10:12:30;;;;;;;14.33;12.83;;;;;;;;;;5073236;28;20898;-46
2021/09/22 10:14:56;;;;;;;18.30;12.23;;;;;;;;;;5072321;28;20400;-50
2021/09/22 10:17:23;;;;;;;14.00;9.83;;;;;;;;;;5072332;28;21041;-46
2021/09/22 10:19:50;;;;;;;15.53;10.50;;;;;;;;;;5073043;28;20404;-47
2021/09/22 10:22:16;;;;;;;12.80;9.90;;;;;;;;;;5072961;28;20839;-48
2021/09/22 10:24:42;;;;;;;12.70;10.23;;;;;;;;;;5072976;28;20401;-47
2021/09/22 10:27:12;;;;;;;10.57;9.03;;;;;;;;;;5072578;28;20426;-47
2021/09/22 10:29:50;;;;;;;13.27;9.93;;;;;;;;;;5072710;28;20892;-50
2021/09/22 10:32:32;;;;;;;14.80;9.33;;;;;;;;;;5072732;28;20468;-50
2021/09/22 10:34:58;;;;;;;18.30;9.13;;;;;;;;;;5072827;28;20487;-46
2021/09/22 10:37:32;;;;;;;8.30;7.50;;;;;;;;;;5072398;28;20842;-46
2021/09/22 10:39:58;;;;;;;9.87;6.90;;;;;;;;;;5072616;28;20453;-46
2021/09/22 10:42:27;;;;;;;7.67;6.97;;;;;;;;;;5072384;28;20410;-47
2021/09/22 10:45:11;;;;;;;8.80;7.30;;;;;;;;;;5072642;28;20491;-48
2021/09/22 10:47:37;;;;;;;8.40;7.50;;;;;;;;;;5072311;28;20421;-46
2021/09/22 10:50:03;;;;;;;9.23;6.73;;;;;;;;;;5072409;28;20456;-46
2021/09/22 10:52:37;;;;;;;6.63;5.67;;;;;;;;;;5072342;28;20396;-46
2021/09/22 10:55:12;;;;;;;7.80;5.90;;;;;;;;;;5072197;28;20839;-47
2021/09/22 10:57:39;;;;;;;7.20;5.70;;;;;;;;;;5072039;28;20427;-51
2021/09/22 11:00:09;;;;;;;7.37;4.97;;;;;;;;;;5072476;28;20469;-47
2021/09/22 11:02:45;;;;;;;5.47;4.93;;;;;;;;;;5072205;28;20411;-46
2021/09/22 11:05:31;;;;;;;6.80;5.60;;;;;;;;;;5072185;28;20491;-47
2021/09/22 11:07:59;;;;;;;5.93;5.30;;;;;;;;;;5071756;28;20432;-46
2021/09/22 11:10:31;;;;;;;5.47;5.03;;;;;;;;;;5071993;28;20513;-48
2021/09/22 11:13:16;;;;;;;9.30;4.70;;;;;;;;;;5072064;28;20446;-49
2021/09/22 11:15:43;;;;;;;6.73;5.23;;;;;;;;;;5071939;28;20876;-46
2021/09/22 11:18:09;;;;;;;7.57;6.77;;;;;;;;;;5071752;28;20419;-47
2021/09/22 11:20:35;;;;;;;9.50;7.77;;;;;;;;;;5072792;28;20396;-46
2021/09/22 11:23:13;;;;;;;7.30;6.60;;;;;;;;;;5071888;28;20454;-46
2021/09/22 11:25:41;;;;;;;5.07;4.57;;;;;;;;;;5071742;28;20467;-46
2021/09/22 11:28:08;;;;;;;6.23;5.63;;;;;;;;;;5071698;28;20447;-51
2021/09/22 11:30:35;;;;;;;4.80;4.40;;;;;;;;;;5071631;28;20962;-47
2021/09/22 11:33:04;;;;;;;6.50;5.80;;;;;;;;;;5072027;28;20457;-48
2021/09/22 11:35:30;;;;;;;6.80;6.10;;;;;;;;;;5071719;28;20388;-47
2021/09/22 11:38:00;;;;;;;6.57;5.60;;;;;;;;;;5071642;28;20444;-46
2021/09/22 11:40:26;;;;;;;6.53;5.80;;;;;;;;;;5072190;28;20404;-47
2021/09/22 11:43:05;;;;;;;10.00;5.87;;;;;;;;;;5071637;28;20405;-47
2021/09/22 11:45:39;;;;;;;6.00;5.40;;;;;;;;;;5072037;28;20488;-49
2021/09/22 11:48:06;;;;;;;6.27;4.07;;;;;;;;;;5071862;28;20408;-47
2021/09/22 11:50:36;;;;;;;5.97;5.17;;;;;;;;;;5071584;28;20467;-48
2021/09/22 11:53:06;;;;;;;5.57;4.50;;;;;;;;;;5071714;28;20400;-47
2021/09/22 11:55:35;;;;;;;4.70;4.10;;;;;;;;;;5071643;28;20784;-46
2021/09/22 11:58:08;;;;;;;8.20;4.33;;;;;;;;;;5071645;28;20432;-47
2021/09/22 12:00:37;;;;;;;6.60;4.93;;;;;;;;;;5071591;28;20980;-51
2021/09/22 12:03:07;;;;;;;4.37;3.70;;;;;;;;;;5071628;28;20404;-47
2021/09/22 12:05:36;;;;;;;9.10;3.50;;;;;;;;;;5074960;28;20405;-50
2021/09/22 12:08:02;;;;;;;5.37;4.10;;;;;;;;;;5075242;28;20457;-46
2021/09/22 12:10:28;;;;;;;3.70;3.33;;;;;;;;;;5075712;28;20459;-48
2021/09/22 12:13:04;;;;;;;3.80;3.50;;;;;;;;;;5074411;28;20507;-47
2021/09/22 12:15:31;;;;;;;4.40;3.63;;;;;;;;;;5075496;28;20406;-48
2021/09/22 12:17:57;;;;;;;6.10;3.97;;;;;;;;;;5075077;28;20466;-47
2021/09/22 12:20:23;;;;;;;5.63;4.70;;;;;;;;;;5075149;28;20876;-47
2021/09/22 12:23:03;;;;;;;6.23;5.37;;;;;;;;;;5075237;28;20412;-47
2021/09/22 12:25:29;;;;;;;4.70;3.73;;;;;;;;;;5075266;28;20396;-47
2021/09/22 12:27:56;;;;;;;4.93;4.53;;;;;;;;;;5075023;28;20431;-47
2021/09/22 12:30:32;;;;;;;4.10;3.80;;;;;;;;;;5075037;28;20867;-47
2021/09/22 12:33:00;;;;;;;5.50;5.00;;;;;;;;;;5074879;28;20412;-47
2021/09/22 12:35:33;;;;;;;4.93;4.37;;;;;;;;;;5074976;28;20400;-48
2021/09/22 12:38:02;;;;;;;5.00;4.00;;;;;;;;;;5075035;28;20426;-47
2021/09/22 12:40:32;;;;;;;3.20;2.93;;;;;;;;;;5074966;28;20881;-48
2021/09/22 12:42:59;;;;;;;4.20;3.90;;;;;;;;;;5072142;28;20507;-48
2021/09/22 12:45:26;;;;;;;3.83;2.60;;;;;;;;;;5064117;28;20896;-47
2021/09/22 12:47:52;;;;;;;5.07;4.00;;;;;;;;;;5053910;28;20433;-48
2021/09/22 12:50:20;;;;;;;6.30;4.80;;;;;;;;;;5052919;28;20514;-51
2021/09/22 12:52:48;;;;;;;6.43;4.07;;;;;;;;;;5053776;28;20646;-50
2021/09/22 12:55:20;;;;;;;3.37;3.13;;;;;;;;;;5054608;28;20425;-47
2021/09/22 12:57:51;;;;;;;3.30;2.70;;;;;;;;;;5054281;28;20471;-47
2021/09/22 13:00:27;;;;;;;4.67;3.10;;;;;;;;;;5054549;28;20435;-51
2021/09/22 13:03:08;;;;;;;5.17;3.23;;;;;;;;;;5054531;28;20838;-48
2021/09/22 13:05:42;;;;;;;2.50;2.30;;;;;;;;;;5054495;28;20401;-47
2021/09/22 13:08:12;;;;;;;5.37;4.57;;;;;;;;;;5054264;28;20519;-48
2021/09/22 13:10:51;;;;;;;4.30;4.00;;;;;;;;;;5054240;28;20452;-48
2021/09/22 13:13:17;;;;;;;2.47;2.30;;;;;;;;;;5054307;28;20401;-46
2021/09/22 13:15:43;;;;;;;2.80;2.40;;;;;;;;;;5053014;28;20398;-47
2021/09/22 13:18:09;;;;;;;2.97;2.73;;;;;;;;;;5053923;28;20504;-48
2021/09/22 13:20:35;;;;;;;4.60;3.10;;;;;;;;;;5054116;28;20492;-47
2021/09/22 13:23:01;;;;;;;3.37;3.07;;;;;;;;;;5053960;28;20413;-47
2021/09/22 13:25:28;;;;;;;2.90;2.60;;;;;;;;;;5054105;28;20551;-47
2021/09/22 13:27:54;;;;;;;3.60;2.97;;;;;;;;;;5053848;28;20428;-47
2021/09/22 13:30:20;;;;;;;3.43;3.00;;;;;;;;;;5053937;28;20460;-47
2021/09/22 13:32:52;;;;;;;4.20;3.80;;;;;;;;;;5053876;28;20398;-47
2021/09/22 13:35:18;;;;;;;5.47;3.30;;;;;;;;;;5053821;28;20401;-47
2021/09/22 13:37:44;;;;;;;3.53;3.23;;;;;;;;;;5053630;28;20430;-47
2021/09/22 13:40:10;;;;;;;5.07;4.53;;;;;;;;;;5053857;28;20412;-47
2021/09/22 13:42:36;;;;;;;4.27;3.10;;;;;;;;;;5053729;28;20773;-49
2021/09/22 13:45:02;;;;;;;4.73;3.77;;;;;;;;;;5053775;28;20413;-50
2021/09/22 13:47:28;;;;;;;4.20;3.80;;;;;;;;;;5053440;28;20425;-50
2021/09/22 13:49:54;;;;;;;2.70;2.40;;;;;;;;;;5053441;28;20457;-50
2021/09/22 13:52:20;;;;;;;3.40;3.10;;;;;;;;;;5053538;28;20428;-47
2021/09/22 13:54:46;;;;;;;6.50;3.80;;;;;;;;;;5053589;28;20405;-47
2021/09/22 13:57:12;;;;;;;8.70;2.87;;;;;;;;;;5053629;28;20472;-47
2021/09/22 13:59:40;;;;;;;5.20;3.43;;;;;;;;;;5053241;28;20401;-47
2021/09/22 14:02:07;;;;;;;10.30;6.00;;;;;;;;;;5053523;28;20425;-48
2021/09/22 14:04:32;;;;;;;6.77;5.00;;;;;;;;;;5053211;28;20433;-47
2021/09/22 14:06:58;;;;;;;6.37;5.43;;;;;;;;;;5053293;28;20459;-47
2021/09/22 14:09:24;;;;;;;5.17;4.67;;;;;;;;;;5053064;28;20413;-47
2021/09/22 14:11:50;;;;;;;6.60;4.00;;;;;;;;;;5053156;28;20510;-47
2021/09/22 14:14:16;;;;;;;7.87;5.70;;;;;;;;;;5053227;28;20454;-49
2021/09/22 14:16:42;;;;;;;8.10;4.23;;;;;;;;;;5053944;28;20806;-52
2021/09/22 14:19:08;;;;;;;6.63;5.10;;;;;;;;;;5062602;28;20424;-47
2021/09/22 14:21:34;;;;;;;6.47;5.43;;;;;;;;;;5052762;28;20397;-47
2021/09/22 14:24:00;;;;;;;5.40;4.90;;;;;;;;;;5053460;28;20412;-47
2021/09/22 14:26:26;;;;;;;4.83;3.77;;;;;;;;;;5057860;28;20503;-47
2021/09/22 14:28:53;;;;;;;7.37;5.43;;;;;;;;;;5072146;28;20771;-46